Time;durP1;ratioP1;P1;durP2;ratioP2;P2;SDS_P1;SDS_P2;PMS_P1;PMS_P2;Temp;Humidity;BMP_temperature;BMP_pressure;BME280_temperature;BME280_humidity;BME280_pressure;Samples;Min_cycle;Max_cycle;Signal;HPM_P1;HPM_P2
2022/03/30 00:02:22;;;;;;;23.57;13.70;;;;;;;;;;10489004;28;20040;-72
2022/03/30 00:07:22;;;;;;;32.88;14.07;;;;;;;;;;10471749;28;20024;-72
2022/03/30 00:12:23;;;;;;;26.70;12.30;;;;;;;;;;10471395;28;20043;-71
2022/03/30 00:17:23;;;;;;;31.00;11.73;;;;;;;;;;10454611;28;20551;-74
2022/03/30 00:22:24;;;;;;;30.33;12.77;;;;;;;;;;10453056;28;20509;-73
2022/03/30 00:27:24;;;;;;;24.58;12.98;;;;;;;;;;10429664;28;20025;-71
2022/03/30 00:32:24;;;;;;;22.55;12.80;;;;;;;;;;10478517;28;20063;-72
2022/03/30 00:37:24;;;;;;;30.63;12.98;;;;;;;;;;10488836;28;20517;-73
2022/03/30 00:42:25;;;;;;;25.73;13.48;;;;;;;;;;10470491;28;20043;-73
2022/03/30 00:47:26;;;;;;;26.20;13.40;;;;;;;;;;10470490;28;20032;-73
2022/03/30 00:52:27;;;;;;;32.90;12.52;;;;;;;;;;10470578;28;20278;-71
2022/03/30 00:57:29;;;;;;;33.80;14.10;;;;;;;;;;10470135;28;20036;-73
2022/03/30 01:02:30;;;;;;;28.70;13.80;;;;;;;;;;10488197;28;20025;-74
2022/03/30 01:07:31;;;;;;;23.23;13.20;;;;;;;;;;10470201;28;20430;-72
2022/03/30 01:12:32;;;;;;;30.98;12.90;;;;;;;;;;10470359;28;20116;-71
2022/03/30 01:17:33;;;;;;;24.95;13.98;;;;;;;;;;10476505;28;20092;-71
2022/03/30 01:22:33;;;;;;;26.63;13.32;;;;;;;;;;10478114;28;20460;-72
2022/03/30 01:27:34;;;;;;;25.63;13.30;;;;;;;;;;10478138;28;20081;-73
2022/03/30 01:32:36;;;;;;;28.38;14.00;;;;;;;;;;10495748;28;20045;-74
2022/03/30 01:37:36;;;;;;;26.90;12.68;;;;;;;;;;10477826;28;20081;-71
2022/03/30 01:42:37;;;;;;;25.13;12.13;;;;;;;;;;10477246;28;20020;-70
2022/03/30 01:47:39;;;;;;;22.83;13.07;;;;;;;;;;10476984;28;20016;-72
2022/03/30 01:52:39;;;;;;;33.42;16.17;;;;;;;;;;10476875;28;20017;-72
2022/03/30 01:57:39;;;;;;;30.67;14.32;;;;;;;;;;10477150;28;20020;-71
2022/03/30 02:02:40;;;;;;;24.85;12.77;;;;;;;;;;10476351;28;20028;-72
2022/03/30 02:07:40;;;;;;;37.97;15.20;;;;;;;;;;10476528;28;20017;-73
2022/03/30 02:12:41;;;;;;;22.77;13.43;;;;;;;;;;10475917;28;20017;-73
2022/03/30 02:17:41;;;;;;;28.67;14.53;;;;;;;;;;10476249;28;20051;-73
2022/03/30 02:22:42;;;;;;;23.27;14.02;;;;;;;;;;10475827;28;20024;-72
2022/03/30 02:27:43;;;;;;;35.73;15.90;;;;;;;;;;10475207;28;20024;-72
2022/03/30 02:32:44;;;;;;;35.03;14.80;;;;;;;;;;10475017;28;20497;-70
2022/03/30 02:37:44;;;;;;;27.25;14.73;;;;;;;;;;10475190;28;20016;-72
2022/03/30 02:42:44;;;;;;;28.40;13.70;;;;;;;;;;10476061;28;20028;-70
2022/03/30 02:53:03;;;;;;;25.55;13.63;;;;;;;;;;10492404;28;20024;-73
2022/03/30 02:58:04;;;;;;;26.98;14.27;;;;;;;;;;10474569;28;20012;-72
2022/03/30 03:03:05;;;;;;;29.45;14.73;;;;;;;;;;10474251;28;20025;-71
2022/03/30 03:08:06;;;;;;;37.05;15.27;;;;;;;;;;10474794;28;20089;-73
2022/03/30 03:13:06;;;;;;;26.38;13.95;;;;;;;;;;10473402;28;20477;-74
2022/03/30 03:18:07;;;;;;;32.92;16.08;;;;;;;;;;10473819;28;20017;-71
2022/03/30 03:23:07;;;;;;;34.97;16.43;;;;;;;;;;10473346;28;20366;-72
2022/03/30 03:28:08;;;;;;;39.72;15.85;;;;;;;;;;10472931;28;20082;-71
2022/03/30 03:33:09;;;;;;;35.22;16.92;;;;;;;;;;10456352;28;20056;-76
2022/03/30 03:38:09;;;;;;;35.53;16.98;;;;;;;;;;10489807;28;20425;-72
2022/03/30 03:43:09;;;;;;;35.80;15.57;;;;;;;;;;10472597;28;20024;-73
2022/03/30 03:48:10;;;;;;;42.43;16.17;;;;;;;;;;10455528;28;20109;-71
2022/03/30 03:53:10;;;;;;;43.07;15.63;;;;;;;;;;10471990;28;20108;-72
2022/03/30 03:58:12;;;;;;;46.15;17.75;;;;;;;;;;10471895;28;20379;-71
2022/03/30 04:03:12;;;;;;;39.55;14.82;;;;;;;;;;10471703;28;20095;-71
2022/03/30 04:08:13;;;;;;;29.02;16.05;;;;;;;;;;10471646;28;20075;-73
2022/03/30 04:13:13;;;;;;;33.63;14.27;;;;;;;;;;10471082;28;20020;-73
2022/03/30 04:18:13;;;;;;;34.77;14.10;;;;;;;;;;10471225;28;20020;-73
2022/03/30 04:23:14;;;;;;;35.65;16.27;;;;;;;;;;10471024;28;20586;-72
2022/03/30 04:28:17;;;;;;;31.02;15.68;;;;;;;;;;10471562;28;20454;-72
2022/03/30 04:33:18;;;;;;;46.67;17.52;;;;;;;;;;10496036;28;20064;-75
2022/03/30 04:38:18;;;;;;;40.80;17.33;;;;;;;;;;10511980;28;20470;-72
2022/03/30 04:43:18;;;;;;;36.13;17.63;;;;;;;;;;10485235;28;20270;-71
2022/03/30 04:48:19;;;;;;;50.80;17.42;;;;;;;;;;10519861;28;20118;-77
2022/03/30 04:53:19;;;;;;;35.47;17.55;;;;;;;;;;10510968;28;20020;-71
2022/03/30 04:58:19;;;;;;;35.03;15.05;;;;;;;;;;10511613;28;20046;-72
2022/03/30 05:03:20;;;;;;;31.35;15.43;;;;;;;;;;10511465;28;20473;-75
2022/03/30 05:08:20;;;;;;;25.80;13.95;;;;;;;;;;10510710;28;20016;-77
2022/03/30 05:13:20;;;;;;;32.30;17.55;;;;;;;;;;10510287;28;20024;-72
2022/03/30 05:18:22;;;;;;;54.97;15.18;;;;;;;;;;10473225;28;20031;-74
2022/03/30 05:23:22;;;;;;;49.15;16.67;;;;;;;;;;10468206;28;20193;-72
2022/03/30 05:28:22;;;;;;;53.00;15.53;;;;;;;;;;10469332;28;20111;-73
2022/03/30 05:33:22;;;;;;;35.45;16.52;;;;;;;;;;10486219;28;20040;-74
2022/03/30 05:38:24;;;;;;;37.15;14.90;;;;;;;;;;10469060;28;20013;-72
2022/03/30 05:43:25;;;;;;;28.38;15.10;;;;;;;;;;10468828;28;20029;-73
2022/03/30 05:48:26;;;;;;;29.00;14.77;;;;;;;;;;10486276;28;20105;-73
2022/03/30 05:53:26;;;;;;;31.00;14.82;;;;;;;;;;10468431;28;20115;-72
2022/03/30 05:58:26;;;;;;;31.65;13.82;;;;;;;;;;10468162;28;20017;-71
2022/03/30 06:03:26;;;;;;;33.30;12.55;;;;;;;;;;10472181;28;20036;-73
2022/03/30 06:08:27;;;;;;;48.40;12.25;;;;;;;;;;10458940;28;20024;-76
2022/03/30 06:13:27;;;;;;;29.30;12.73;;;;;;;;;;10475280;28;20490;-74
2022/03/30 06:18:27;;;;;;;30.33;13.60;;;;;;;;;;10475119;28;20016;-71
2022/03/30 06:23:28;;;;;;;27.40;13.02;;;;;;;;;;10458299;28;20033;-72
2022/03/30 06:28:29;;;;;;;22.55;11.48;;;;;;;;;;10474661;28;20021;-72
2022/03/30 06:33:30;;;;;;;30.23;11.68;;;;;;;;;;10474189;28;20199;-74
2022/03/30 06:38:30;;;;;;;34.50;14.43;;;;;;;;;;10474655;28;20023;-73
2022/03/30 06:43:30;;;;;;;22.52;11.80;;;;;;;;;;10474101;28;20317;-74
2022/03/30 06:48:31;;;;;;;32.80;13.60;;;;;;;;;;10474453;28;20447;-73
2022/03/30 06:53:31;;;;;;;33.03;15.88;;;;;;;;;;10473793;28;20337;-72
2022/03/30 06:58:32;;;;;;;36.15;15.75;;;;;;;;;;10474033;28;20017;-72
2022/03/30 07:03:32;;;;;;;39.33;14.07;;;;;;;;;;10473551;28;20036;-74
2022/03/30 07:13:52;;;;;;;26.55;15.82;;;;;;;;;;10490786;28;20024;-71
2022/03/30 07:18:54;;;;;;;34.13;14.27;;;;;;;;;;10473152;28;20070;-71
2022/03/30 07:23:54;;;;;;;27.75;12.73;;;;;;;;;;10472824;28;20042;-72
2022/03/30 07:28:54;;;;;;;34.80;14.98;;;;;;;;;;10472191;28;20019;-73
2022/03/30 07:33:54;;;;;;;26.15;13.20;;;;;;;;;;10455337;28;20048;-75
2022/03/30 07:38:55;;;;;;;37.13;13.32;;;;;;;;;;10472324;28;20012;-73
2022/03/30 07:43:55;;;;;;;29.40;12.10;;;;;;;;;;10489887;28;20023;-72
2022/03/30 07:48:55;;;;;;;23.10;11.48;;;;;;;;;;10472231;28;20028;-71
2022/03/30 07:53:56;;;;;;;22.20;11.27;;;;;;;;;;10489568;28;20057;-73
2022/03/30 07:58:59;;;;;;;24.97;11.20;;;;;;;;;;10471733;28;20042;-73
2022/03/30 08:04:00;;;;;;;28.95;10.40;;;;;;;;;;10471573;28;20052;-73
2022/03/30 08:09:00;;;;;;;20.13;8.87;;;;;;;;;;10471732;28;20059;-71
2022/03/30 08:14:00;;;;;;;18.05;9.55;;;;;;;;;;10471035;28;20202;-71
2022/03/30 08:19:01;;;;;;;34.38;11.93;;;;;;;;;;10471364;28;20025;-71
2022/03/30 08:24:02;;;;;;;26.37;10.63;;;;;;;;;;10470395;28;20146;-71
2022/03/30 08:29:02;;;;;;;26.83;11.38;;;;;;;;;;10470497;28;20459;-74
2022/03/30 08:34:02;;;;;;;33.08;11.50;;;;;;;;;;10469988;28;20529;-74
2022/03/30 08:39:05;;;;;;;24.30;11.67;;;;;;;;;;10488117;28;20040;-76
2022/03/30 08:44:05;;;;;;;31.42;12.63;;;;;;;;;;10486501;28;20020;-73
2022/03/30 08:49:06;;;;;;;27.48;10.95;;;;;;;;;;10470038;28;20021;-72
2022/03/30 08:54:09;;;;;;;29.92;10.43;;;;;;;;;;10453552;28;20013;-76
2022/03/30 08:59:11;;;;;;;18.75;8.98;;;;;;;;;;10470106;28;20543;-69
2022/03/30 09:04:13;;;;;;;20.58;9.52;;;;;;;;;;10474748;28;20043;-73
2022/03/30 09:09:15;;;;;;;29.05;10.50;;;;;;;;;;10508212;28;20501;-74
2022/03/30 09:14:18;;;;;;;24.55;10.10;;;;;;;;;;10520803;28;20081;-75
2022/03/30 09:19:20;;;;;;;22.63;9.23;;;;;;;;;;10489316;28;20056;-73
2022/03/30 09:24:22;;;;;;;27.20;9.63;;;;;;;;;;10497724;28;20137;-74
2022/03/30 09:29:24;;;;;;;23.67;9.75;;;;;;;;;;10469366;28;20036;-73
2022/03/30 09:34:24;;;;;;;19.35;9.77;;;;;;;;;;10491160;28;20048;-72
2022/03/30 09:39:30;;;;;;;26.58;9.38;;;;;;;;;;10482877;28;20445;-73
2022/03/30 09:44:43;;;;;;;25.15;9.90;;;;;;;;;;10474669;28;20540;-72
2022/03/30 09:49:43;;;;;;;28.25;10.35;;;;;;;;;;10482647;28;20394;-72
2022/03/30 09:54:54;;;;;;;14.13;8.10;;;;;;;;;;10506984;28;20046;-71
2022/03/30 10:00:07;;;;;;;18.13;8.93;;;;;;;;;;10508403;28;20020;-74
2022/03/30 10:05:08;;;;;;;25.00;8.95;;;;;;;;;;10513555;28;20024;-74
2022/03/30 10:10:10;;;;;;;19.17;7.18;;;;;;;;;;10515067;28;20097;-71
2022/03/30 10:15:11;;;;;;;22.08;7.43;;;;;;;;;;10532325;28;20020;-72
2022/03/30 10:20:12;;;;;;;17.45;6.82;;;;;;;;;;10515091;28;20019;-73
2022/03/30 10:25:18;;;;;;;17.67;7.70;;;;;;;;;;10511670;23;20538;-72
2022/03/30 10:30:26;;;;;;;14.48;5.00;;;;;;;;;;10454319;28;20024;-76
2022/03/30 10:35:36;;;;;;;13.68;5.60;;;;;;;;;;10470361;28;20048;-74
2022/03/30 10:40:37;;;;;;;14.05;5.53;;;;;;;;;;10471521;28;20043;-70
2022/03/30 10:45:40;;;;;;;14.85;6.03;;;;;;;;;;10471315;28;20031;-73
2022/03/30 10:50:51;;;;;;;10.77;5.55;;;;;;;;;;10441812;28;20067;-72
2022/03/30 10:55:51;;;;;;;12.70;5.20;;;;;;;;;;10467813;28;20578;-73
2022/03/30 11:01:10;;;;;;;11.15;4.25;;;;;;;;;;10454804;28;20035;-73
2022/03/30 11:06:11;;;;;;;12.20;4.93;;;;;;;;;;10465369;28;20462;-74
2022/03/30 11:11:29;;;;;;;12.23;5.20;;;;;;;;;;10455317;28;20397;-73
2022/03/30 11:16:46;;;;;;;15.48;5.63;;;;;;;;;;10470376;28;20013;-75
2022/03/30 11:21:54;;;;;;;14.98;7.30;;;;;;;;;;10470224;28;20043;-75
2022/03/30 11:26:54;;;;;;;13.80;4.80;;;;;;;;;;10471876;28;20434;-79
2022/03/30 11:31:54;;;;;;;10.80;4.07;;;;;;;;;;10490321;28;20040;-77
2022/03/30 11:36:56;;;;;;;14.15;5.13;;;;;;;;;;10490426;28;20036;-72
2022/03/30 11:41:57;;;;;;;16.42;5.28;;;;;;;;;;10473964;28;20040;-72
2022/03/30 11:46:57;;;;;;;12.68;4.07;;;;;;;;;;10430973;28;20021;-71
2022/03/30 11:52:13;;;;;;;14.73;4.53;;;;;;;;;;10447599;28;20040;-71
2022/03/30 11:57:15;;;;;;;8.25;3.55;;;;;;;;;;10471925;28;20025;-74
2022/03/30 12:02:15;;;;;;;12.88;3.83;;;;;;;;;;10507062;23;20048;-73
2022/03/30 12:07:19;;;;;;;12.90;5.03;;;;;;;;;;10471707;28;20485;-71
2022/03/30 12:12:26;;;;;;;11.35;4.10;;;;;;;;;;10471137;28;20471;-72
2022/03/30 12:17:27;;;;;;;13.53;3.97;;;;;;;;;;10489525;28;20021;-79
2022/03/30 12:22:28;;;;;;;17.27;4.47;;;;;;;;;;10470823;28;21016;-71
2022/03/30 12:27:38;;;;;;;14.23;4.60;;;;;;;;;;10470427;28;20024;-73
2022/03/30 12:32:39;;;;;;;16.10;3.55;;;;;;;;;;10504278;28;20028;-70
2022/03/30 12:37:43;;;;;;;10.50;3.60;;;;;;;;;;10512006;28;20024;-72
2022/03/30 12:42:46;;;;;;;13.18;3.67;;;;;;;;;;10497368;28;20082;-72
2022/03/30 12:47:51;;;;;;;8.93;3.60;;;;;;;;;;10470477;28;20422;-73
2022/03/30 12:52:52;;;;;;;8.23;3.47;;;;;;;;;;10470411;28;20478;-70
2022/03/30 12:57:53;;;;;;;13.18;3.25;;;;;;;;;;10492015;28;20234;-71
2022/03/30 13:03:07;;;;;;;15.10;3.05;;;;;;;;;;10510839;28;20485;-70
2022/03/30 13:08:12;;;;;;;6.95;3.20;;;;;;;;;;10511335;28;20067;-71
2022/03/30 13:13:15;;;;;;;13.70;2.97;;;;;;;;;;10517189;28;20477;-71
2022/03/30 13:18:18;;;;;;;19.70;4.10;;;;;;;;;;10517715;28;20021;-74
2022/03/30 13:23:18;;;;;;;17.20;3.53;;;;;;;;;;10477745;28;20024;-75
2022/03/30 13:28:22;;;;;;;8.15;2.90;;;;;;;;;;10475555;28;20008;-73
2022/03/30 13:33:23;;;;;;;10.90;3.38;;;;;;;;;;10518467;28;20031;-72
2022/03/30 13:38:24;;;;;;;13.43;3.03;;;;;;;;;;10502195;28;20016;-72
2022/03/30 13:43:24;;;;;;;11.95;3.88;;;;;;;;;;10538905;28;20048;-72
2022/03/30 13:48:25;;;;;;;10.47;3.23;;;;;;;;;;10517436;28;20582;-72
2022/03/30 13:53:26;;;;;;;15.60;3.72;;;;;;;;;;10535595;28;20289;-71
2022/03/30 13:58:26;;;;;;;13.02;3.97;;;;;;;;;;10516001;28;20008;-71
2022/03/30 14:03:27;;;;;;;10.40;3.72;;;;;;;;;;10516474;28;20063;-71
2022/03/30 14:08:27;;;;;;;15.33;4.30;;;;;;;;;;10515108;28;20105;-73
2022/03/30 14:13:27;;;;;;;22.30;5.80;;;;;;;;;;10516121;28;20024;-71
2022/03/30 14:18:28;;;;;;;34.83;6.13;;;;;;;;;;10516108;28;20012;-74
2022/03/30 14:23:29;;;;;;;13.52;4.00;;;;;;;;;;10512788;28;20038;-71
2022/03/30 14:28:29;;;;;;;16.50;4.97;;;;;;;;;;10514829;28;20038;-75
2022/03/30 14:33:30;;;;;;;24.77;3.70;;;;;;;;;;10524746;28;20044;-72
2022/03/30 14:38:30;;;;;;;17.60;3.38;;;;;;;;;;10515632;28;20036;-71
2022/03/30 14:43:30;;;;;;;7.90;2.97;;;;;;;;;;10531188;28;20051;-74
2022/03/30 14:48:31;;;;;;;11.85;3.28;;;;;;;;;;10505450;28;20032;-71
2022/03/30 14:53:31;;;;;;;17.67;4.30;;;;;;;;;;10528239;28;20035;-74
2022/03/30 14:58:32;;;;;;;20.02;4.35;;;;;;;;;;10495429;28;20031;-71
2022/03/30 15:03:33;;;;;;;10.48;3.83;;;;;;;;;;10514224;28;20102;-71
2022/03/30 15:08:34;;;;;;;8.32;3.47;;;;;;;;;;10506272;28;20089;-73
2022/03/30 15:13:34;;;;;;;12.65;3.53;;;;;;;;;;10510271;28;20106;-74
2022/03/30 15:18:35;;;;;;;20.20;3.13;;;;;;;;;;10498144;28;20498;-73
2022/03/30 15:23:35;;;;;;;11.75;3.33;;;;;;;;;;10503844;28;20657;-73
2022/03/30 15:28:35;;;;;;;9.00;3.13;;;;;;;;;;10529274;28;20035;-70
2022/03/30 15:33:36;;;;;;;8.52;3.25;;;;;;;;;;10480178;28;20496;-72
2022/03/30 15:38:38;;;;;;;10.73;3.23;;;;;;;;;;10508375;28;20028;-70
2022/03/30 15:43:38;;;;;;;13.35;2.85;;;;;;;;;;10498210;28;20020;-71
2022/03/30 15:48:39;;;;;;;4.93;3.23;;;;;;;;;;10513756;28;20452;-72
2022/03/30 15:53:40;;;;;;;20.90;3.72;;;;;;;;;;10502380;28;20032;-71
2022/03/30 15:58:41;;;;;;;11.68;3.20;;;;;;;;;;10509576;28;20106;-71
2022/03/30 16:03:42;;;;;;;14.27;3.87;;;;;;;;;;10524933;28;20052;-74
2022/03/30 16:08:54;;;;;;;12.82;3.50;;;;;;;;;;10491610;28;20035;-71
2022/03/30 16:13:54;;;;;;;14.02;3.53;;;;;;;;;;10488405;28;20063;-72
2022/03/30 16:18:54;;;;;;;11.95;3.65;;;;;;;;;;10510383;28;20158;-70
2022/03/30 16:23:55;;;;;;;23.37;4.20;;;;;;;;;;10512303;28;20039;-70
2022/03/30 16:28:55;;;;;;;15.45;3.47;;;;;;;;;;10497632;28;20076;-76
2022/03/30 16:33:56;;;;;;;16.88;3.95;;;;;;;;;;10505153;28;20523;-75
2022/03/30 16:38:57;;;;;;;21.77;5.60;;;;;;;;;;10511960;28;20079;-69
2022/03/30 16:43:57;;;;;;;16.80;4.43;;;;;;;;;;10511171;28;20574;-74
2022/03/30 16:48:58;;;;;;;13.57;3.08;;;;;;;;;;10501576;28;20037;-74
2022/03/30 16:53:58;;;;;;;12.77;3.70;;;;;;;;;;10493136;28;20035;-72
2022/03/30 16:58:58;;;;;;;13.48;3.90;;;;;;;;;;10505541;28;20024;-75
2022/03/30 17:03:59;;;;;;;25.40;7.30;;;;;;;;;;10525848;28;20055;-71
2022/03/30 17:14:18;;;;;;;21.35;5.13;;;;;;;;;;10472706;28;20024;-72
2022/03/30 17:19:19;;;;;;;16.60;5.43;;;;;;;;;;10485007;28;20024;-74
2022/03/30 17:24:20;;;;;;;18.15;4.57;;;;;;;;;;10517256;28;20157;-74
2022/03/30 17:29:20;;;;;;;31.70;5.28;;;;;;;;;;10483481;28;20032;-72
2022/03/30 17:34:20;;;;;;;27.67;6.88;;;;;;;;;;10487524;28;20549;-72
2022/03/30 17:39:21;;;;;;;24.10;5.07;;;;;;;;;;10527543;28;20114;-73
2022/03/30 17:44:21;;;;;;;14.90;5.13;;;;;;;;;;10507517;28;20028;-73
2022/03/30 17:54:41;;;;;;;33.47;8.18;;;;;;;;;;10489503;28;20473;-72
2022/03/30 17:59:41;;;;;;;22.48;5.25;;;;;;;;;;10515288;28;20048;-72
2022/03/30 18:04:41;;;;;;;31.27;7.00;;;;;;;;;;10515283;28;20024;-72
2022/03/30 18:09:42;;;;;;;15.53;5.13;;;;;;;;;;10514528;28;20058;-71
2022/03/30 18:14:47;;;;;;;16.03;3.43;;;;;;;;;;10508427;28;20032;-73
2022/03/30 18:19:47;;;;;;;17.90;4.85;;;;;;;;;;10504216;28;20146;-70
2022/03/30 18:24:47;;;;;;;14.43;3.47;;;;;;;;;;10513520;28;20027;-76
2022/03/30 18:29:48;;;;;;;20.70;5.70;;;;;;;;;;10516675;28;20028;-70
2022/03/30 18:34:48;;;;;;;16.33;4.73;;;;;;;;;;10497749;28;20028;-71
2022/03/30 18:39:49;;;;;;;15.25;4.20;;;;;;;;;;10478418;28;20027;-71
2022/03/30 18:44:52;;;;;;;20.52;4.07;;;;;;;;;;10515528;28;20020;-72
2022/03/30 18:49:53;;;;;;;13.35;5.30;;;;;;;;;;10514898;28;20053;-70
2022/03/30 18:54:53;;;;;;;14.90;4.38;;;;;;;;;;10532647;28;20072;-71
2022/03/30 18:59:53;;;;;;;21.40;4.80;;;;;;;;;;10467624;28;20101;-72
2022/03/30 19:04:54;;;;;;;17.38;4.78;;;;;;;;;;10525001;28;20497;-70
2022/03/30 19:09:54;;;;;;;28.07;4.40;;;;;;;;;;10480546;28;20025;-72
2022/03/30 19:14:54;;;;;;;14.37;3.60;;;;;;;;;;10472583;28;20024;-72
2022/03/30 19:19:54;;;;;;;18.55;4.25;;;;;;;;;;10486397;28;20036;-72
2022/03/30 19:24:55;;;;;;;14.90;4.30;;;;;;;;;;10510926;28;20607;-71
2022/03/30 19:29:55;;;;;;;18.63;3.77;;;;;;;;;;10509208;28;20409;-71
2022/03/30 19:34:55;;;;;;;24.05;4.35;;;;;;;;;;10510320;28;20442;-74
2022/03/30 19:39:56;;;;;;;18.57;3.63;;;;;;;;;;10510737;28;20497;-73
2022/03/30 19:44:56;;;;;;;13.07;3.47;;;;;;;;;;10505885;28;20028;-73
2022/03/30 19:49:56;;;;;;;15.27;4.05;;;;;;;;;;10495136;28;20425;-72
2022/03/30 19:54:57;;;;;;;15.98;4.13;;;;;;;;;;10525251;28;20036;-71
2022/03/30 19:59:57;;;;;;;13.43;4.03;;;;;;;;;;10507395;28;20081;-71
2022/03/30 20:04:57;;;;;;;14.07;4.88;;;;;;;;;;10485966;28;20287;-73
2022/03/30 20:09:58;;;;;;;10.40;4.30;;;;;;;;;;10469209;28;20020;-71
2022/03/30 20:14:58;;;;;;;16.23;4.80;;;;;;;;;;10467639;28;20144;-74
2022/03/30 20:19:59;;;;;;;16.50;3.80;;;;;;;;;;10464883;28;20029;-71
2022/03/30 20:24:59;;;;;;;10.32;3.83;;;;;;;;;;10504560;28;20020;-71
2022/03/30 20:29:59;;;;;;;17.45;4.43;;;;;;;;;;10511554;28;20016;-74
2022/03/30 20:35:00;;;;;;;14.65;3.58;;;;;;;;;;10485456;28;20016;-69
2022/03/30 20:40:02;;;;;;;17.95;3.53;;;;;;;;;;10487805;28;20063;-71
2022/03/30 20:45:02;;;;;;;24.88;5.72;;;;;;;;;;10487532;28;20043;-72
2022/03/30 20:50:03;;;;;;;19.90;4.00;;;;;;;;;;10469543;28;20024;-73
2022/03/30 20:55:04;;;;;;;15.93;2.78;;;;;;;;;;10470124;28;20027;-72
2022/03/30 21:00:06;;;;;;;19.35;6.85;;;;;;;;;;10469041;28;20049;-70
2022/03/30 21:05:07;;;;;;;12.38;4.68;;;;;;;;;;10468428;28;20121;-73
2022/03/30 21:10:08;;;;;;;14.25;3.65;;;;;;;;;;10488982;28;20170;-74
2022/03/30 21:15:09;;;;;;;26.30;6.55;;;;;;;;;;10469318;28;20596;-72
2022/03/30 21:20:10;;;;;;;23.42;6.97;;;;;;;;;;10470334;28;20478;-75
2022/03/30 21:25:14;;;;;;;19.88;6.63;;;;;;;;;;10483411;28;20028;-72
2022/03/30 21:30:14;;;;;;;29.88;5.05;;;;;;;;;;10487913;28;20032;-75
2022/03/30 21:35:14;;;;;;;17.83;5.43;;;;;;;;;;10475821;28;20482;-71
2022/03/30 21:40:18;;;;;;;24.17;6.18;;;;;;;;;;10477062;28;20043;-71
2022/03/30 21:45:18;;;;;;;14.85;4.05;;;;;;;;;;10476311;28;20056;-74
2022/03/30 21:50:19;;;;;;;21.27;4.88;;;;;;;;;;10477244;28;20020;-72
2022/03/30 21:55:19;;;;;;;19.58;5.50;;;;;;;;;;10476221;28;20032;-71
2022/03/30 22:00:35;;;;;;;20.90;4.68;;;;;;;;;;10475795;28;20098;-73
2022/03/30 22:05:37;;;;;;;19.48;4.93;;;;;;;;;;10476246;28;20094;-71
2022/03/30 22:10:52;;;;;;;19.88;4.63;;;;;;;;;;10475786;28;20482;-75
2022/03/30 22:15:53;;;;;;;23.40;4.47;;;;;;;;;;10492469;28;20017;-74
2022/03/30 22:20:53;;;;;;;18.00;8.07;;;;;;;;;;10478763;28;20027;-72
2022/03/30 22:25:53;;;;;;;23.27;4.77;;;;;;;;;;10516724;28;20046;-71
2022/03/30 22:30:54;;;;;;;28.93;6.23;;;;;;;;;;10515863;28;20316;-75
2022/03/30 22:35:54;;;;;;;21.53;5.97;;;;;;;;;;10515572;28;20040;-71
2022/03/30 22:40:58;;;;;;;22.70;5.80;;;;;;;;;;10534658;28;20258;-72
2022/03/30 22:45:59;;;;;;;18.00;5.55;;;;;;;;;;10515534;28;20061;-75
2022/03/30 22:51:00;;;;;;;17.17;5.95;;;;;;;;;;10515240;28;20039;-75
2022/03/30 22:56:00;;;;;;;21.57;6.07;;;;;;;;;;10474403;28;20028;-78
2022/03/30 23:01:00;;;;;;;15.40;5.00;;;;;;;;;;10477257;28;20484;-77
2022/03/30 23:11:21;;;;;;;14.68;6.15;;;;;;;;;;10477349;28;20511;-73
2022/03/30 23:16:21;;;;;;;16.98;5.38;;;;;;;;;;10489026;28;20028;-73
2022/03/30 23:21:21;;;;;;;16.30;5.23;;;;;;;;;;10479920;28;20370;-71
2022/03/30 23:26:22;;;;;;;17.92;6.35;;;;;;;;;;10533155;28;20262;-73
2022/03/30 23:31:22;;;;;;;17.40;4.83;;;;;;;;;;10513708;28;20020;-74
2022/03/30 23:36:22;;;;;;;22.70;7.00;;;;;;;;;;10510702;28;20053;-72
2022/03/30 23:41:23;;;;;;;26.02;4.97;;;;;;;;;;10513219;28;20478;-72
2022/03/30 23:46:23;;;;;;;18.83;5.20;;;;;;;;;;10531290;28;20682;-71
2022/03/30 23:51:23;;;;;;;16.00;5.20;;;;;;;;;;10513660;28;20039;-75
2022/03/30 23:56:23;;;;;;;24.03;5.30;;;;;;;;;;10531593;28;20054;-72
